createdAt,value
2019-02-24T00:01:35.482Z,102517.21
2019-02-24T00:04:14.408Z,102521.55
2019-02-24T00:06:42.019Z,102522.83
2019-02-24T00:09:22.028Z,102525.45
2019-02-24T00:12:02.277Z,102523.69
2019-02-24T00:14:45.074Z,102517.48
2019-02-24T00:17:14.729Z,102524.50
2019-02-24T00:19:55.096Z,102528.01
2019-02-24T00:22:27.757Z,102530.19
2019-02-24T00:25:09.646Z,102525.78
2019-02-24T00:27:51.668Z,102533.66
2019-02-24T00:30:44.928Z,102529.70
2019-02-24T00:33:21.551Z,102522.23
2019-02-24T00:36:09.199Z,102518.29
2019-02-24T00:38:43.242Z,102523.13
2019-02-24T00:41:15.927Z,102519.19
2019-02-24T00:43:57.191Z,102524.03
2019-02-24T00:46:37.104Z,102519.66
2019-02-24T00:49:13.160Z,102521.42
2019-02-24T00:51:55.178Z,102515.70
2019-02-24T00:54:52.185Z,102505.18
2019-02-24T00:57:09.617Z,102502.13
2019-02-24T00:59:43.690Z,102492.89
2019-02-24T01:02:17.443Z,102492.02
2019-02-24T01:05:09.562Z,102488.05
2019-02-24T01:07:52.806Z,102489.83
2019-02-24T01:10:35.111Z,102492.89
2019-02-24T01:13:15.282Z,102488.48
2019-02-24T01:15:55.129Z,102478.34
2019-02-24T01:18:45.355Z,102473.52
2019-02-24T01:21:22.286Z,102474.31
2019-02-24T01:24:01.317Z,102476.03
2019-02-24T01:26:37.376Z,102487.45
2019-02-24T01:29:18.654Z,102495.36
2019-02-24T01:31:48.315Z,102496.23
2019-02-24T01:34:20.310Z,102505.00
2019-02-24T01:36:55.607Z,102490.50
2019-02-24T01:39:45.861Z,102472.03
2019-02-24T01:42:24.211Z,102458.30
2019-02-24T01:45:03.301Z,102453.42
2019-02-24T01:47:46.028Z,102451.23
2019-02-24T01:50:17.340Z,102446.06
2019-02-24T01:52:52.819Z,102446.99
2019-02-24T01:55:33.118Z,102436.98
2019-02-24T01:58:04.312Z,102447.17
2019-02-24T02:00:42.523Z,102456.45
2019-02-24T02:03:15.256Z,102460.50
2019-02-24T02:05:48.525Z,102465.38
2019-02-24T02:08:23.899Z,102463.25
2019-02-24T02:11:02.386Z,102457.19
2019-02-24T02:13:38.081Z,102465.53
2019-02-24T02:16:20.352Z,102464.67
2019-02-24T02:18:56.167Z,102473.44
2019-02-24T02:21:27.206Z,102472.13
2019-02-24T02:24:19.853Z,102471.70
2019-02-24T02:26:55.250Z,102469.56
2019-02-24T02:29:26.748Z,102470.01
2019-02-24T02:32:12.846Z,102461.23
2019-02-24T02:34:46.653Z,102459.49
2019-02-24T02:37:23.981Z,102448.11
2019-02-24T02:40:01.507Z,102450.77
2019-02-24T02:42:46.292Z,102446.39
2019-02-24T02:45:26.321Z,102446.41
2019-02-24T02:48:10.027Z,102446.41
2019-02-24T02:50:50.878Z,102443.34
2019-02-24T02:53:39.971Z,102433.30
2019-02-24T02:56:19.986Z,102446.02
2019-02-24T02:58:57.566Z,102440.76
2019-02-24T03:01:33.832Z,102440.36
2019-02-24T03:04:16.658Z,102429.84
2019-02-24T03:06:48.250Z,102435.53
2019-02-24T03:09:26.891Z,102452.59
2019-02-24T03:12:16.717Z,102449.55
2019-02-24T03:14:58.003Z,102453.91
2019-02-24T03:17:32.707Z,102458.29
2019-02-24T03:20:13.427Z,102453.91
2019-02-24T03:22:55.992Z,102463.11
2019-02-24T03:25:35.785Z,102458.29
2019-02-24T03:28:16.399Z,102457.41
2019-02-24T03:30:47.684Z,102449.52
2019-02-24T03:33:30.625Z,102453.91
2019-02-24T03:36:08.245Z,102455.22
2019-02-24T03:38:39.408Z,102454.78
2019-02-24T03:41:09.240Z,102466.17
2019-02-24T03:43:40.924Z,102464.02
2019-02-24T03:46:18.059Z,102464.89
2019-02-24T03:48:52.138Z,102462.70
2019-02-24T03:51:24.392Z,102464.02
2019-02-24T03:54:03.170Z,102468.39
2019-02-24T03:56:37.319Z,102457.00
2019-02-24T03:59:15.283Z,102454.38
2019-02-24T04:01:46.231Z,102450.44
2019-02-24T04:04:26.524Z,102457.88
2019-02-24T04:07:05.253Z,102463.58
2019-02-24T04:09:34.798Z,102448.24
2019-02-24T04:12:07.524Z,102448.68
2019-02-24T04:14:46.154Z,102449.55
2019-02-24T04:17:27.360Z,102460.51
2019-02-24T04:20:03.014Z,102460.06
2019-02-24T04:22:38.736Z,102456.56
2019-02-24T04:25:11.665Z,102447.80
2019-02-24T04:27:45.976Z,102440.34
2019-02-24T04:30:21.474Z,102450.87
2019-02-24T04:33:00.515Z,102459.63
2019-02-24T04:35:39.339Z,102460.06
2019-02-24T04:38:15.972Z,102450.87
2019-02-24T04:40:51.443Z,102455.25
2019-02-24T04:43:30.450Z,102462.67
2019-02-24T04:46:05.981Z,102450.40
2019-02-24T04:48:42.171Z,102449.95
2019-02-24T04:51:26.277Z,102448.64
2019-02-24T04:53:56.196Z,102436.77
2019-02-24T04:56:27.529Z,102430.67
2019-02-24T04:59:04.614Z,102439.87
2019-02-24T05:01:35.817Z,102434.19
2019-02-24T05:04:11.080Z,102435.94
2019-02-24T05:06:39.965Z,102442.08
2019-02-24T05:09:15.906Z,102442.11
2019-02-24T05:11:51.873Z,102443.86
2019-02-24T05:14:46.874Z,102448.20
2019-02-24T05:20:02.478Z,102432.87
2019-02-24T05:22:50.021Z,102435.50
2019-02-24T05:25:29.460Z,102427.17
2019-02-24T05:28:05.095Z,102417.97
2019-02-24T05:30:43.384Z,102406.13
2019-02-24T05:33:23.115Z,102407.84
2019-02-24T05:35:56.408Z,102407.39
2019-02-24T05:38:30.362Z,102404.76
2019-02-24T05:41:06.401Z,102397.73
2019-02-24T05:43:41.272Z,102394.16
2019-02-24T05:46:20.165Z,102384.91
2019-02-24T05:48:52.388Z,102380.02
2019-02-24T05:51:29.530Z,102371.22
2019-02-24T05:54:06.598Z,102364.55
2019-02-24T05:56:49.173Z,102374.16
2019-02-24T06:02:00.826Z,102373.59
2019-02-24T06:04:33.855Z,102361.23
2019-02-24T06:07:08.694Z,102358.05
2019-02-24T06:09:41.006Z,102374.14
2019-02-24T06:12:25.546Z,102369.70
2019-02-24T06:14:58.480Z,102374.92
2019-02-24T06:17:43.853Z,102389.83
2019-02-24T06:20:28.238Z,102398.98
2019-02-24T06:23:02.699Z,102398.93
2019-02-24T06:25:44.732Z,102408.08
2019-02-24T06:28:18.193Z,102402.27
2019-02-24T06:30:51.299Z,102404.91
2019-02-24T06:33:22.637Z,102392.06
2019-02-24T06:36:00.037Z,102393.72
2019-02-24T06:38:34.240Z,102395.88
2019-02-24T06:41:12.378Z,102398.48
2019-02-24T06:43:47.945Z,102409.06
2019-02-24T06:46:26.496Z,102410.78
2019-02-24T06:49:03.074Z,102404.97
2019-02-24T06:51:43.992Z,102396.91
2019-02-24T06:54:20.885Z,102395.66
2019-02-24T06:57:01.135Z,102389.13
2019-02-24T06:59:38.429Z,102385.65
2019-02-24T07:02:20.695Z,102384.17
2019-02-24T07:05:02.429Z,102381.95
2019-02-24T07:07:42.830Z,102380.60
2019-02-24T07:10:16.747Z,102383.81
2019-02-24T07:12:46.399Z,102382.23
2019-02-24T07:15:18.678Z,102378.85
2019-02-24T07:18:04.901Z,102382.41
2019-02-24T07:20:45.337Z,102392.98
2019-02-24T07:23:20.359Z,102388.44
2019-02-24T07:25:59.225Z,102379.92
2019-02-24T07:28:34.310Z,102378.31
2019-02-24T07:31:11.840Z,102379.98
2019-02-24T07:33:44.585Z,102376.05
2019-02-24T07:36:20.084Z,102383.41
2019-02-24T07:39:08.219Z,102379.12
2019-02-24T07:41:41.270Z,102366.11
2019-02-24T07:44:14.624Z,102375.41
2019-02-24T07:46:47.611Z,102372.84
2019-02-24T07:49:16.088Z,102377.46
2019-02-24T07:51:47.472Z,102385.16
2019-02-24T07:54:22.166Z,102390.59
2019-02-24T07:57:06.505Z,102391.18
2019-02-24T07:59:50.096Z,102387.77
2019-02-24T08:02:22.515Z,102392.81
2019-02-24T08:05:03.055Z,102386.13
2019-02-24T08:07:43.878Z,102381.05
2019-02-24T08:10:21.923Z,102383.33
2019-02-24T08:13:04.957Z,102378.45
2019-02-24T08:15:43.061Z,102399.40
2019-02-24T08:18:12.656Z,102396.40
2019-02-24T08:20:51.399Z,102405.52
2019-02-24T08:23:45.263Z,102399.89
2019-02-24T08:26:26.237Z,102405.03
2019-02-24T08:28:57.674Z,102399.23
2019-02-24T08:31:32.717Z,102405.64
2019-02-24T08:34:05.859Z,102409.77
2019-02-24T08:36:40.633Z,102414.62
2019-02-24T08:39:17.065Z,102414.20
2019-02-24T08:41:53.798Z,102418.22
2019-02-24T08:44:27.859Z,102431.13
2019-02-24T08:47:02.929Z,102434.99
2019-02-24T08:49:35.035Z,102440.52
2019-02-24T08:52:08.215Z,102442.08
2019-02-24T08:54:47.984Z,102437.30
2019-02-24T08:57:20.810Z,102440.94
2019-02-24T09:03:26.635Z,102441.05
2019-02-24T09:06:09.967Z,102440.84
2019-02-24T09:08:44.537Z,102437.57
2019-02-24T09:11:25.360Z,102435.05
2019-02-24T09:14:07.473Z,102437.69
2019-02-24T09:16:42.716Z,102437.58
2019-02-24T09:19:23.066Z,102436.63
2019-02-24T09:22:01.989Z,102436.77
2019-02-24T09:24:30.772Z,102440.05
2019-02-24T09:27:02.924Z,102431.80
2019-02-24T09:29:39.698Z,102435.22
2019-02-24T09:32:18.155Z,102428.58
2019-02-24T09:34:57.622Z,102439.58
2019-02-24T09:37:32.921Z,102453.84
2019-02-24T09:40:22.105Z,102450.34
2019-02-24T09:42:52.806Z,102437.56
2019-02-24T09:48:32.798Z,102442.29
2019-02-24T09:51:02.396Z,102432.23
2019-02-24T09:56:39.289Z,102430.80
2019-02-24T09:59:13.914Z,102431.39
2019-02-24T10:01:49.320Z,102425.09
2019-02-24T10:04:23.675Z,102423.02
2019-02-24T10:07:00.408Z,102423.55
2019-02-24T10:09:36.658Z,102412.38
2019-02-24T10:12:09.456Z,102421.91
2019-02-24T10:14:49.167Z,102423.06
2019-02-24T10:17:28.710Z,102422.28
2019-02-24T10:20:10.734Z,102420.70
2019-02-24T10:22:45.300Z,102419.84
2019-02-24T10:25:18.177Z,102413.91
2019-02-24T10:27:55.791Z,102414.12
2019-02-24T10:30:30.113Z,102398.08
2019-02-24T10:33:06.044Z,102395.33
2019-02-24T10:35:50.654Z,102402.22
2019-02-24T10:38:32.979Z,102406.13
2019-02-24T10:41:08.053Z,102409.69
2019-02-24T10:43:41.129Z,102404.45
2019-02-24T10:46:22.959Z,102412.13
2019-02-24T10:49:03.917Z,102399.34
2019-02-24T10:51:53.155Z,102394.38
2019-02-24T10:54:28.934Z,102388.14
2019-02-24T10:57:14.466Z,102383.41
2019-02-24T10:59:49.193Z,102379.30
2019-02-24T11:02:23.920Z,102376.00
2019-02-24T11:05:04.448Z,102369.36
2019-02-24T11:07:37.318Z,102359.14
2019-02-24T11:10:15.980Z,102361.61
2019-02-24T11:12:55.336Z,102363.58
2019-02-24T11:15:30.545Z,102348.38
2019-02-24T11:18:03.227Z,102340.38
2019-02-24T11:20:52.207Z,102344.05
2019-02-24T11:23:33.268Z,102333.76
2019-02-24T11:26:14.955Z,102327.97
2019-02-24T11:28:53.586Z,102327.04
2019-02-24T11:31:38.137Z,102323.33
2019-02-24T11:34:07.266Z,102316.20
2019-02-24T11:36:40.007Z,102313.02
2019-02-24T11:39:18.156Z,102308.29
2019-02-24T11:41:54.038Z,102310.44
2019-02-24T11:44:37.258Z,102312.69
2019-02-24T11:47:06.865Z,102311.39
2019-02-24T11:49:50.301Z,102309.09
2019-02-24T11:52:27.277Z,102304.34
2019-02-24T11:55:01.604Z,102310.45
2019-02-24T11:57:38.233Z,102325.74
2019-02-24T12:00:27.960Z,102320.75
2019-02-24T12:03:06.683Z,102312.72
2019-02-24T12:05:57.838Z,102308.11
2019-02-24T12:08:32.662Z,102317.67
2019-02-24T12:11:07.694Z,102327.64
2019-02-24T12:13:39.036Z,102334.63
2019-02-24T12:16:21.819Z,102337.34
2019-02-24T12:18:59.977Z,102336.84
2019-02-24T12:21:31.375Z,102335.66
2019-02-24T12:24:04.054Z,102328.07
2019-02-24T12:29:31.474Z,102320.69
2019-02-24T12:32:15.643Z,102327.28
2019-02-24T12:34:45.199Z,102330.38
2019-02-24T12:37:29.628Z,102311.67
2019-02-24T12:40:18.665Z,102314.80
2019-02-24T12:42:55.644Z,102326.40
2019-02-24T12:45:29.485Z,102313.04
2019-02-24T12:48:00.450Z,102318.36
2019-02-24T12:50:35.753Z,102313.38
2019-02-24T12:53:08.590Z,102321.13
2019-02-24T12:55:50.954Z,102315.50
2019-02-24T12:58:25.048Z,102314.30
2019-02-24T13:01:05.583Z,102320.05
2019-02-24T13:03:59.636Z,102317.34
2019-02-24T13:06:32.478Z,102315.17
2019-02-24T13:09:07.007Z,102312.06
2019-02-24T13:11:37.604Z,102305.85
2019-02-24T13:14:12.082Z,102309.56
2019-02-24T13:16:48.488Z,102297.39
2019-02-24T13:19:21.269Z,102296.68
2019-02-24T13:21:55.283Z,102303.94
2019-02-24T13:24:24.934Z,102292.90
2019-02-24T13:27:00.747Z,102290.67
2019-02-24T13:29:39.343Z,102282.01
2019-02-24T13:32:15.076Z,102284.51
2019-02-24T13:35:03.761Z,102282.22
2019-02-24T13:37:36.952Z,102278.19
2019-02-24T13:40:24.407Z,102279.68
2019-02-24T13:42:57.632Z,102275.84
2019-02-24T13:45:43.984Z,102276.83
2019-02-24T13:48:18.507Z,102271.57
2019-02-24T13:50:54.504Z,102264.48
2019-02-24T13:53:42.366Z,102270.45
2019-02-24T13:56:17.823Z,102261.41
2019-02-24T13:58:51.642Z,102257.50
2019-02-24T14:01:27.719Z,102258.35
2019-02-24T14:04:11.311Z,102266.30
2019-02-24T14:06:50.200Z,102263.26
2019-02-24T14:10:02.073Z,102268.48
2019-02-24T14:12:25.381Z,102269.94
2019-02-24T14:15:01.647Z,102272.16
2019-02-24T14:17:36.857Z,102273.56
2019-02-24T14:20:11.192Z,102273.78
2019-02-24T14:22:52.851Z,102273.06
2019-02-24T14:25:25.754Z,102265.94
2019-02-24T14:28:03.875Z,102269.50
2019-02-24T14:30:42.682Z,102273.66
2019-02-24T14:33:13.989Z,102275.51
2019-02-24T14:35:48.739Z,102276.84
2019-02-24T14:38:28.260Z,102284.61
2019-02-24T14:41:08.947Z,102282.34
2019-02-24T14:43:38.272Z,102278.80
2019-02-24T14:46:16.093Z,102284.91
2019-02-24T14:48:47.271Z,102284.47
2019-02-24T14:51:21.812Z,102282.30
2019-02-24T14:53:53.606Z,102290.67
2019-02-24T14:56:42.826Z,102299.66
2019-02-24T14:59:27.960Z,102303.12
2019-02-24T15:02:05.180Z,102308.63
2019-02-24T15:04:46.300Z,102313.17
2019-02-24T15:07:27.482Z,102307.75
2019-02-24T15:09:56.970Z,102320.68
2019-02-24T15:12:26.479Z,102323.22
2019-02-24T15:14:55.958Z,102329.08
2019-02-24T15:17:26.284Z,102328.42
2019-02-24T15:19:55.796Z,102321.69
2019-02-24T15:22:25.282Z,102310.67
2019-02-24T15:24:54.747Z,102313.46
2019-02-24T15:27:24.242Z,102306.05
2019-02-24T15:29:53.894Z,102292.92
2019-02-24T15:32:23.355Z,102289.25
2019-02-24T15:34:52.827Z,102283.77
2019-02-24T15:37:22.288Z,102277.90
2019-02-24T15:39:51.838Z,102269.42
2019-02-24T15:42:21.359Z,102262.44
2019-02-24T15:44:50.814Z,102261.95
2019-02-24T15:47:20.317Z,102269.77
2019-02-24T15:49:50.348Z,102287.84
2019-02-24T15:52:19.909Z,102291.90
2019-02-24T15:54:49.616Z,102287.36
2019-02-24T15:57:19.994Z,102285.13
2019-02-24T15:59:49.806Z,102287.09
2019-02-24T16:02:19.267Z,102295.77
2019-02-24T16:04:48.761Z,102303.98
2019-02-24T16:07:18.527Z,102286.73
2019-02-24T16:09:47.983Z,102283.91
2019-02-24T16:12:17.448Z,102282.20
2019-02-24T16:14:46.971Z,102282.75
2019-02-24T16:17:16.450Z,102281.13
2019-02-24T16:19:45.970Z,102282.22
2019-02-24T16:22:15.461Z,102277.48
2019-02-24T16:24:45.295Z,102281.48
2019-02-24T16:27:14.766Z,102292.21
2019-02-24T16:29:44.500Z,102284.83
2019-02-24T16:32:13.995Z,102289.08
2019-02-24T16:34:43.624Z,102289.77
2019-02-24T16:37:13.091Z,102288.16
2019-02-24T16:39:42.544Z,102286.13
2019-02-24T16:42:12.327Z,102288.25
2019-02-24T16:44:41.793Z,102295.34
2019-02-24T16:47:11.256Z,102296.60
2019-02-24T16:49:40.775Z,102299.25
2019-02-24T16:52:10.498Z,102298.67
2019-02-24T16:54:40.002Z,102285.23
2019-02-24T16:57:09.468Z,102286.38
2019-02-24T16:59:39.138Z,102282.88
2019-02-24T17:02:08.645Z,102280.06
2019-02-24T17:04:38.108Z,102294.21
2019-02-24T17:07:07.578Z,102296.30
2019-02-24T17:09:37.027Z,102295.41
2019-02-24T17:12:06.553Z,102294.84
2019-02-24T17:14:36.038Z,102294.29
2019-02-24T17:17:05.826Z,102288.78
2019-02-24T17:19:35.293Z,102295.56
2019-02-24T17:22:05.156Z,102293.12
2019-02-24T17:24:35.069Z,102295.23
2019-02-24T17:27:04.746Z,102282.25
2019-02-24T17:29:34.221Z,102293.59
2019-02-24T17:32:04.228Z,102300.51
2019-02-24T17:34:33.753Z,102313.28
2019-02-24T17:37:03.282Z,102307.91
2019-02-24T17:39:32.750Z,102307.70
2019-02-24T17:42:02.216Z,102301.36
2019-02-24T17:44:32.039Z,102304.67
2019-02-24T17:47:01.490Z,102311.48
2019-02-24T17:49:31.283Z,102322.30
2019-02-24T17:52:00.755Z,102327.31
2019-02-24T17:54:30.589Z,102325.85
2019-02-24T17:57:00.215Z,102327.68
2019-02-24T17:59:29.683Z,102320.84
2019-02-24T18:01:59.381Z,102320.27
2019-02-24T18:04:28.863Z,102316.06
2019-02-24T18:06:58.318Z,102318.07
2019-02-24T18:09:27.789Z,102324.03
2019-02-24T18:11:57.257Z,102329.55
2019-02-24T18:14:26.729Z,102327.39
2019-02-24T18:16:56.462Z,102326.28
2019-02-24T18:19:25.947Z,102321.97
2019-02-24T18:21:55.422Z,102322.56
2019-02-24T18:24:24.946Z,102319.72
2019-02-24T18:26:54.817Z,102318.07
2019-02-24T18:29:24.299Z,102320.50
2019-02-24T18:31:53.847Z,102317.14
2019-02-24T18:34:23.735Z,102316.22
2019-02-24T18:36:53.175Z,102310.83
2019-02-24T18:39:22.711Z,102313.56
2019-02-24T18:41:52.175Z,102318.09
2019-02-24T18:44:21.752Z,102315.66
2019-02-24T18:46:51.215Z,102306.77
2019-02-24T18:49:20.690Z,102299.72
2019-02-24T18:51:50.158Z,102303.38
2019-02-24T18:54:19.642Z,102294.63
2019-02-24T18:56:49.102Z,102299.06
2019-02-24T18:59:18.966Z,102310.94
2019-02-24T19:01:48.430Z,102314.09
2019-02-24T19:04:18.272Z,102316.88
2019-02-24T19:06:47.739Z,102319.57
2019-02-24T19:09:17.201Z,102321.03
2019-02-24T19:11:46.656Z,102321.25
2019-02-24T19:14:16.496Z,102314.85
2019-02-24T19:16:45.979Z,102315.81
2019-02-24T19:19:15.717Z,102324.60
2019-02-24T19:21:45.548Z,102326.39
2019-02-24T19:24:15.085Z,102320.25
2019-02-24T19:26:44.543Z,102315.64
2019-02-24T19:29:14.034Z,102329.23
2019-02-24T19:31:43.850Z,102329.41
2019-02-24T19:34:13.334Z,102329.81
2019-02-24T19:36:42.839Z,102328.08
2019-02-24T19:39:14.516Z,102330.81
2019-02-24T19:41:43.983Z,102329.73
2019-02-24T19:44:13.712Z,102330.30
2019-02-24T19:46:43.172Z,102342.70
2019-02-24T19:49:12.651Z,102349.61
2019-02-24T19:51:42.116Z,102345.83
2019-02-24T19:54:11.864Z,102339.77
2019-02-24T19:56:41.322Z,102349.31
2019-02-24T19:59:10.798Z,102362.70
2019-02-24T20:01:40.256Z,102361.04
2019-02-24T20:04:15.723Z,102359.94
2019-02-24T20:06:40.899Z,102359.60
2019-02-24T20:09:10.626Z,102365.33
2019-02-24T20:11:40.152Z,102367.87
2019-02-24T20:14:09.663Z,102366.27
2019-02-24T20:16:39.126Z,102371.23
2019-02-24T20:19:08.619Z,102370.78
2019-02-24T20:21:38.375Z,102364.64
2019-02-24T20:24:08.205Z,102356.83
2019-02-24T20:26:37.658Z,102361.72
2019-02-24T20:29:07.150Z,102358.61
2019-02-24T20:31:36.609Z,102357.47
2019-02-24T20:34:06.086Z,102354.02
2019-02-24T20:36:35.543Z,102360.58
2019-02-24T20:39:05.837Z,102364.94
2019-02-24T20:41:35.546Z,102372.97
2019-02-24T20:44:05.288Z,102370.01
2019-02-24T20:46:34.762Z,102369.14
2019-02-24T20:49:04.228Z,102367.84
2019-02-24T20:51:33.734Z,102365.79
2019-02-24T20:54:03.213Z,102366.48
2019-02-24T20:56:32.678Z,102363.55
2019-02-24T20:59:02.164Z,102368.09
2019-02-24T21:01:31.814Z,102368.72
2019-02-24T21:04:01.270Z,102367.00
2019-02-24T21:06:30.744Z,102367.88
2019-02-24T21:09:00.266Z,102374.54
2019-02-24T21:11:29.734Z,102375.89
2019-02-24T21:13:59.216Z,102368.40
2019-02-24T21:16:29.038Z,102367.45
2019-02-24T21:18:58.503Z,102369.59
2019-02-24T21:21:27.978Z,102366.45
2019-02-24T21:23:57.485Z,102367.67
2019-02-24T21:26:26.965Z,102371.41
2019-02-24T21:28:56.416Z,102362.62
2019-02-24T21:31:25.875Z,102363.94
2019-02-24T21:33:55.345Z,102368.86
2019-02-24T21:36:24.801Z,102376.33
2019-02-24T21:38:54.290Z,102376.33
2019-02-24T21:41:24.014Z,102362.30
2019-02-24T21:43:53.469Z,102363.66
2019-02-24T21:46:22.937Z,102361.05
2019-02-24T21:48:52.438Z,102359.44
2019-02-24T21:51:22.224Z,102356.02
2019-02-24T21:53:51.679Z,102360.52
2019-02-24T21:56:21.168Z,102361.55
2019-02-24T21:58:50.659Z,102369.60
2019-02-24T22:01:20.450Z,102372.83
2019-02-24T22:03:51.511Z,102376.94
2019-02-24T22:06:21.055Z,102364.27
2019-02-24T22:08:54.367Z,102373.06
2019-02-24T22:11:23.841Z,102376.25
2019-02-24T22:13:53.300Z,102369.02
2019-02-24T22:16:23.120Z,102376.16
2019-02-24T22:18:52.934Z,102373.06
2019-02-24T22:21:22.685Z,102369.56
2019-02-24T22:23:52.313Z,102366.56
2019-02-24T22:26:21.791Z,102380.26
2019-02-24T22:28:51.246Z,102376.34
2019-02-24T22:31:20.731Z,102383.58
2019-02-24T22:33:50.188Z,102388.81
2019-02-24T22:36:20.041Z,102391.58
2019-02-24T22:38:49.499Z,102392.16
2019-02-24T22:41:18.981Z,102393.54
2019-02-24T22:43:48.453Z,102397.66
2019-02-24T22:46:17.925Z,102395.72
2019-02-24T22:48:47.822Z,102395.41
2019-02-24T22:51:17.303Z,102396.31
2019-02-24T22:53:46.766Z,102396.84
2019-02-24T22:56:16.262Z,102394.28
2019-02-24T22:58:46.052Z,102394.39
2019-02-24T23:01:18.630Z,102394.49
2019-02-24T23:03:48.163Z,102390.62
2019-02-24T23:06:17.947Z,102384.17
2019-02-24T23:08:47.410Z,102382.91
2019-02-24T23:11:16.878Z,102384.12
2019-02-24T23:13:46.338Z,102385.95
2019-02-24T23:16:15.808Z,102390.02
2019-02-24T23:18:45.343Z,102384.33
2019-02-24T23:21:14.822Z,102378.64
2019-02-24T23:23:44.281Z,102378.23
2019-02-24T23:26:14.112Z,102376.12
2019-02-24T23:28:43.573Z,102380.14
2019-02-24T23:31:13.168Z,102383.60
2019-02-24T23:33:42.901Z,102383.69
2019-02-24T23:36:12.491Z,102379.30
2019-02-24T23:38:42.006Z,102377.57
2019-02-24T23:41:11.461Z,102370.98
2019-02-24T23:43:40.928Z,102371.83
2019-02-24T23:46:10.572Z,102371.83
2019-02-24T23:48:40.036Z,102366.55
2019-02-24T23:51:09.527Z,102367.26
2019-02-24T23:53:39.011Z,102360.38
2019-02-24T23:56:08.495Z,102358.73
2019-02-24T23:58:38.004Z,102360.08
